sensor_id;sensor_type;location;lat;lon;timestamp;pressure;altitude;pressure_sealevel;temperature;humidity
19672;BME280;9983;51.114;13.788;2023-04-23T00:01:25;98584.38;;;17.92;52.44
19672;BME280;9983;51.114;13.788;2023-04-23T00:06:27;98588.16;;;17.74;51.70
19672;BME280;9983;51.114;13.788;2023-04-23T00:11:27;98583.69;;;17.68;53.59
19672;BME280;9983;51.114;13.788;2023-04-23T00:16:28;98579.63;;;17.82;53.56
19672;BME280;9983;51.114;13.788;2023-04-23T00:21:28;98571.19;;;17.67;56.84
19672;BME280;9983;51.114;13.788;2023-04-23T00:26:28;98567.19;;;17.58;55.34
19672;BME280;9983;51.114;13.788;2023-04-23T00:31:29;98553.63;;;17.58;53.94
19672;BME280;9983;51.114;13.788;2023-04-23T00:36:29;98557.81;;;17.49;56.78
19672;BME280;9983;51.114;13.788;2023-04-23T00:41:29;98548.53;;;17.33;56.52
19672;BME280;9983;51.114;13.788;2023-04-23T00:46:30;98546.97;;;17.49;56.74
19672;BME280;9983;51.114;13.788;2023-04-23T00:51:30;98551.16;;;17.68;55.88
19672;BME280;9983;51.114;13.788;2023-04-23T00:56:33;98547.09;;;17.42;57.31
19672;BME280;9983;51.114;13.788;2023-04-23T01:01:34;98549.38;;;17.33;56.60
19672;BME280;9983;51.114;13.788;2023-04-23T01:06:34;98557.22;;;17.47;56.91
19672;BME280;9983;51.114;13.788;2023-04-23T01:11:38;98555.75;;;17.27;59.54
19672;BME280;9983;51.114;13.788;2023-04-23T01:16:38;98552.47;;;17.25;60.82
19672;BME280;9983;51.114;13.788;2023-04-23T01:21:38;98558.66;;;16.86;62.42
19672;BME280;9983;51.114;13.788;2023-04-23T01:26:42;98549.22;;;17.00;60.21
19672;BME280;9983;51.114;13.788;2023-04-23T01:31:43;98558.41;;;16.99;59.52
19672;BME280;9983;51.114;13.788;2023-04-23T01:36:44;98551.84;;;16.60;61.70
19672;BME280;9983;51.114;13.788;2023-04-23T01:41:46;98560.28;;;16.17;63.03
19672;BME280;9983;51.114;13.788;2023-04-23T01:46:46;98558.66;;;16.39;62.69
19672;BME280;9983;51.114;13.788;2023-04-23T01:51:46;98554.38;;;15.97;65.93
19672;BME280;9983;51.114;13.788;2023-04-23T01:56:47;98555.53;;;16.01;68.50
19672;BME280;9983;51.114;13.788;2023-04-23T02:01:47;98555.00;;;16.22;66.04
19672;BME280;9983;51.114;13.788;2023-04-23T02:06:49;98559.06;;;15.89;67.59
19672;BME280;9983;51.114;13.788;2023-04-23T02:11:50;98555.28;;;15.90;67.69
19672;BME280;9983;51.114;13.788;2023-04-23T02:16:50;98556.75;;;15.75;70.33
19672;BME280;9983;51.114;13.788;2023-04-23T02:21:50;98550.13;;;15.41;70.86
19672;BME280;9983;51.114;13.788;2023-04-23T02:26:50;98540.03;;;15.54;69.28
19672;BME280;9983;51.114;13.788;2023-04-23T02:31:51;98545.63;;;15.53;70.27
19672;BME280;9983;51.114;13.788;2023-04-23T02:36:51;98546.16;;;14.95;73.43
19672;BME280;9983;51.114;13.788;2023-04-23T02:41:51;98547.38;;;14.81;77.65
19672;BME280;9983;51.114;13.788;2023-04-23T02:46:52;98553.28;;;14.71;75.69
19672;BME280;9983;51.114;13.788;2023-04-23T02:51:52;98552.28;;;15.02;74.64
19672;BME280;9983;51.114;13.788;2023-04-23T02:56:52;98543.50;;;15.07;76.23
19672;BME280;9983;51.114;13.788;2023-04-23T03:01:52;98544.34;;;15.07;74.03
19672;BME280;9983;51.114;13.788;2023-04-23T03:06:53;98539.41;;;15.04;74.68
19672;BME280;9983;51.114;13.788;2023-04-23T03:11:53;98535.50;;;14.82;79.26
19672;BME280;9983;51.114;13.788;2023-04-23T03:16:53;98538.06;;;15.13;76.69
19672;BME280;9983;51.114;13.788;2023-04-23T03:21:53;98539.41;;;15.04;73.38
19672;BME280;9983;51.114;13.788;2023-04-23T03:26:54;98532.03;;;15.30;72.88
19672;BME280;9983;51.114;13.788;2023-04-23T03:31:54;98531.09;;;15.36;71.71
19672;BME280;9983;51.114;13.788;2023-04-23T03:36:55;98514.50;;;15.21;75.34
19672;BME280;9983;51.114;13.788;2023-04-23T03:41:55;98528.59;;;15.23;73.83
19672;BME280;9983;51.114;13.788;2023-04-23T03:46:57;98512.94;;;15.43;72.24
19672;BME280;9983;51.114;13.788;2023-04-23T03:51:57;98505.06;;;15.71;69.33
19672;BME280;9983;51.114;13.788;2023-04-23T03:56:57;98491.56;;;15.71;66.89
19672;BME280;9983;51.114;13.788;2023-04-23T04:01:58;98493.25;;;15.96;66.46
19672;BME280;9983;51.114;13.788;2023-04-23T04:06:59;98503.38;;;16.12;65.75
19672;BME280;9983;51.114;13.788;2023-04-23T04:12:02;98498.69;;;16.19;64.93
19672;BME280;9983;51.114;13.788;2023-04-23T04:17:03;98502.91;;;16.03;66.09
19672;BME280;9983;51.114;13.788;2023-04-23T04:22:03;98489.50;;;16.43;64.74
19672;BME280;9983;51.114;13.788;2023-04-23T04:27:03;98505.72;;;16.66;62.37
19672;BME280;9983;51.114;13.788;2023-04-23T04:32:06;98497.97;;;16.82;66.26
19672;BME280;9983;51.114;13.788;2023-04-23T04:37:07;98495.84;;;16.60;68.54
19672;BME280;9983;51.114;13.788;2023-04-23T04:42:08;98503.94;;;16.60;68.44
19672;BME280;9983;51.114;13.788;2023-04-23T04:47:09;98511.38;;;16.77;71.84
19672;BME280;9983;51.114;13.788;2023-04-23T04:52:10;98513.16;;;16.48;73.52
19672;BME280;9983;51.114;13.788;2023-04-23T04:57:10;98512.78;;;16.67;70.19
19672;BME280;9983;51.114;13.788;2023-04-23T05:02:10;98516.56;;;16.66;72.94
19672;BME280;9983;51.114;13.788;2023-04-23T05:07:11;98515.72;;;16.78;75.54
19672;BME280;9983;51.114;13.788;2023-04-23T05:12:11;98516.31;;;16.33;74.60
19672;BME280;9983;51.114;13.788;2023-04-23T05:17:11;98525.72;;;16.89;71.58
19672;BME280;9983;51.114;13.788;2023-04-23T05:22:13;98526.41;;;16.49;70.13
19672;BME280;9983;51.114;13.788;2023-04-23T05:27:13;98528.47;;;17.17;72.52
19672;BME280;9983;51.114;13.788;2023-04-23T05:32:13;98536.41;;;17.35;72.13
19672;BME280;9983;51.114;13.788;2023-04-23T05:37:14;98542.94;;;17.63;73.51
19672;BME280;9983;51.114;13.788;2023-04-23T05:42:14;98544.00;;;17.62;68.15
19672;BME280;9983;51.114;13.788;2023-04-23T05:47:14;98538.53;;;17.73;76.92
19672;BME280;9983;51.114;13.788;2023-04-23T05:52:15;98540.69;;;17.88;67.37
19672;BME280;9983;51.114;13.788;2023-04-23T05:57:15;98536.28;;;17.99;67.21
19672;BME280;9983;51.114;13.788;2023-04-23T06:02:15;98544.53;;;17.92;65.72
19672;BME280;9983;51.114;13.788;2023-04-23T06:07:15;98545.78;;;18.01;66.36
19672;BME280;9983;51.114;13.788;2023-04-23T06:12:17;98539.13;;;18.26;64.94
19672;BME280;9983;51.114;13.788;2023-04-23T06:17:17;98541.69;;;18.49;63.42
19672;BME280;9983;51.114;13.788;2023-04-23T06:22:17;98548.09;;;18.09;62.71
19672;BME280;9983;51.114;13.788;2023-04-23T06:27:17;98537.22;;;18.43;62.55
19672;BME280;9983;51.114;13.788;2023-04-23T06:32:18;98538.41;;;18.13;62.36
19672;BME280;9983;51.114;13.788;2023-04-23T06:37:18;98539.50;;;18.84;61.56
19672;BME280;9983;51.114;13.788;2023-04-23T06:42:18;98552.88;;;18.36;62.36
19672;BME280;9983;51.114;13.788;2023-04-23T06:47:19;98556.34;;;18.14;63.90
19672;BME280;9983;51.114;13.788;2023-04-23T06:52:19;98556.66;;;18.68;62.96
19672;BME280;9983;51.114;13.788;2023-04-23T06:57:19;98555.59;;;19.08;60.86
19672;BME280;9983;51.114;13.788;2023-04-23T07:02:20;98553.03;;;18.12;64.19
19672;BME280;9983;51.114;13.788;2023-04-23T07:07:21;98567.19;;;18.14;64.99
19672;BME280;9983;51.114;13.788;2023-04-23T07:12:21;98574.44;;;17.80;65.34
19672;BME280;9983;51.114;13.788;2023-04-23T07:17:21;98567.19;;;18.48;64.28
19672;BME280;9983;51.114;13.788;2023-04-23T07:22:23;98579.13;;;17.85;65.50
19672;BME280;9983;51.114;13.788;2023-04-23T07:27:23;98583.13;;;18.11;65.05
19672;BME280;9983;51.114;13.788;2023-04-23T07:32:24;98590.81;;;17.45;68.49
19672;BME280;9983;51.114;13.788;2023-04-23T07:37:26;98587.25;;;17.57;68.59
19672;BME280;9983;51.114;13.788;2023-04-23T07:42:27;98580.81;;;18.03;67.41
19672;BME280;9983;51.114;13.788;2023-04-23T07:47:27;98594.78;;;17.55;69.79
19672;BME280;9983;51.114;13.788;2023-04-23T07:52:27;98585.44;;;17.74;69.74
19672;BME280;9983;51.114;13.788;2023-04-23T07:57:28;98585.47;;;17.62;70.31
19672;BME280;9983;51.114;13.788;2023-04-23T08:02:28;98597.72;;;17.53;71.28
19672;BME280;9983;51.114;13.788;2023-04-23T08:07:28;98591.56;;;17.69;70.04
19672;BME280;9983;51.114;13.788;2023-04-23T08:12:28;98598.69;;;17.87;69.81
19672;BME280;9983;51.114;13.788;2023-04-23T08:17:29;98598.75;;;18.20;68.82
19672;BME280;9983;51.114;13.788;2023-04-23T08:22:30;98592.66;;;18.13;69.15
19672;BME280;9983;51.114;13.788;2023-04-23T08:27:30;98588.81;;;19.15;66.62
19672;BME280;9983;51.114;13.788;2023-04-23T08:32:30;98588.75;;;18.71;69.46
19672;BME280;9983;51.114;13.788;2023-04-23T08:37:31;98597.59;;;19.22;66.11
19672;BME280;9983;51.114;13.788;2023-04-23T08:47:41;98595.38;;;19.19;64.86
19672;BME280;9983;51.114;13.788;2023-04-23T08:52:55;98597.25;;;18.97;64.94
19672;BME280;9983;51.114;13.788;2023-04-23T08:57:57;98609.63;;;18.87;66.57
19672;BME280;9983;51.114;13.788;2023-04-23T09:02:57;98612.00;;;18.67;67.17
19672;BME280;9983;51.114;13.788;2023-04-23T09:07:57;98621.59;;;18.25;68.56
19672;BME280;9983;51.114;13.788;2023-04-23T09:12:58;98611.38;;;18.60;66.96
19672;BME280;9983;51.114;13.788;2023-04-23T09:17:59;98626.41;;;18.68;67.62
19672;BME280;9983;51.114;13.788;2023-04-23T09:23:00;98625.91;;;18.54;67.08
19672;BME280;9983;51.114;13.788;2023-04-23T09:28:00;98626.47;;;18.56;67.64
19672;BME280;9983;51.114;13.788;2023-04-23T09:33:03;98624.41;;;18.97;67.62
19672;BME280;9983;51.114;13.788;2023-04-23T09:38:06;98618.66;;;18.43;68.29
19672;BME280;9983;51.114;13.788;2023-04-23T09:43:09;98624.25;;;18.86;65.11
19672;BME280;9983;51.114;13.788;2023-04-23T09:48:10;98624.28;;;18.70;65.65
19672;BME280;9983;51.114;13.788;2023-04-23T09:53:12;98635.09;;;18.53;65.28
19672;BME280;9983;51.114;13.788;2023-04-23T09:58:14;98637.41;;;18.44;65.61
19672;BME280;9983;51.114;13.788;2023-04-23T10:03:14;98624.69;;;19.17;61.60
19672;BME280;9983;51.114;13.788;2023-04-23T10:08:15;98623.63;;;18.17;64.27
19672;BME280;9983;51.114;13.788;2023-04-23T10:13:16;98637.38;;;18.28;64.73
19672;BME280;9983;51.114;13.788;2023-04-23T10:18:18;98634.41;;;18.12;64.07
19672;BME280;9983;51.114;13.788;2023-04-23T10:23:20;98644.97;;;18.42;63.51
19672;BME280;9983;51.114;13.788;2023-04-23T10:28:21;98625.91;;;18.87;61.51
19672;BME280;9983;51.114;13.788;2023-04-23T10:33:30;98626.75;;;18.71;61.18
19672;BME280;9983;51.114;13.788;2023-04-23T10:38:30;98615.81;;;18.83;61.94
19672;BME280;9983;51.114;13.788;2023-04-23T10:43:31;98618.38;;;19.50;59.30
19672;BME280;9983;51.114;13.788;2023-04-23T10:48:50;98613.72;;;18.40;63.07
19672;BME280;9983;51.114;13.788;2023-04-23T10:53:50;98618.03;;;18.69;62.91
19672;BME280;9983;51.114;13.788;2023-04-23T10:58:51;98611.03;;;19.12;59.47
19672;BME280;9983;51.114;13.788;2023-04-23T11:03:51;98607.53;;;19.77;58.55
19672;BME280;9983;51.114;13.788;2023-04-23T11:08:52;98620.03;;;19.34;59.90
19672;BME280;9983;51.114;13.788;2023-04-23T11:13:52;98621.00;;;20.15;58.46
19672;BME280;9983;51.114;13.788;2023-04-23T11:19:07;98639.41;;;19.59;63.69
19672;BME280;9983;51.114;13.788;2023-04-23T11:24:07;98623.53;;;19.51;64.91
19672;BME280;9983;51.114;13.788;2023-04-23T11:29:07;98625.03;;;19.86;64.93
19672;BME280;9983;51.114;13.788;2023-04-23T11:34:11;98623.47;;;20.17;63.09
19672;BME280;9983;51.114;13.788;2023-04-23T11:39:11;98635.50;;;19.50;65.98
19672;BME280;9983;51.114;13.788;2023-04-23T11:44:12;98626.03;;;20.28;64.60
19672;BME280;9983;51.114;13.788;2023-04-23T11:49:13;98626.56;;;20.89;59.40
19672;BME280;9983;51.114;13.788;2023-04-23T11:54:13;98615.16;;;22.37;55.17
19672;BME280;9983;51.114;13.788;2023-04-23T11:59:14;98625.56;;;22.40;52.41
19672;BME280;9983;51.114;13.788;2023-04-23T12:04:20;98623.91;;;21.51;55.21
19672;BME280;9983;51.114;13.788;2023-04-23T12:09:22;98636.00;;;21.18;54.39
19672;BME280;9983;51.114;13.788;2023-04-23T12:14:27;98637.28;;;20.69;56.48
19672;BME280;9983;51.114;13.788;2023-04-23T12:19:29;98626.84;;;20.02;58.68
19672;BME280;9983;51.114;13.788;2023-04-23T12:24:44;98635.06;;;19.42;62.71
19672;BME280;9983;51.114;13.788;2023-04-23T12:29:45;98632.09;;;19.82;61.53
19672;BME280;9983;51.114;13.788;2023-04-23T12:34:52;98633.03;;;19.70;58.63
19672;BME280;9983;51.114;13.788;2023-04-23T12:39:53;98637.00;;;19.41;59.23
19672;BME280;9983;51.114;13.788;2023-04-23T12:45:04;98623.72;;;19.23;60.93
19672;BME280;9983;51.114;13.788;2023-04-23T12:50:06;98622.16;;;20.83;56.07
19672;BME280;9983;51.114;13.788;2023-04-23T12:55:07;98610.56;;;23.73;48.31
19672;BME280;9983;51.114;13.788;2023-04-23T13:00:07;98608.59;;;22.23;48.11
19672;BME280;9983;51.114;13.788;2023-04-23T13:05:08;98599.81;;;23.17;45.82
19672;BME280;9983;51.114;13.788;2023-04-23T13:10:09;98590.47;;;24.37;44.40
19672;BME280;9983;51.114;13.788;2023-04-23T13:15:10;98587.97;;;26.12;40.17
19672;BME280;9983;51.114;13.788;2023-04-23T13:20:11;98585.50;;;26.34;38.82
19672;BME280;9983;51.114;13.788;2023-04-23T13:25:12;98581.81;;;24.87;40.52
19672;BME280;9983;51.114;13.788;2023-04-23T13:30:12;98563.91;;;25.24;40.92
19672;BME280;9983;51.114;13.788;2023-04-23T13:35:12;98553.19;;;27.73;36.58
19672;BME280;9983;51.114;13.788;2023-04-23T13:40:16;98543.97;;;26.82;36.28
19672;BME280;9983;51.114;13.788;2023-04-23T13:45:16;98542.28;;;25.65;39.42
19672;BME280;9983;51.114;13.788;2023-04-23T13:50:16;98534.44;;;27.48;35.11
19672;BME280;9983;51.114;13.788;2023-04-23T13:55:17;98526.94;;;25.40;39.56
19672;BME280;9983;51.114;13.788;2023-04-23T14:00:17;98538.47;;;24.89;40.23
19672;BME280;9983;51.114;13.788;2023-04-23T14:05:17;98527.75;;;22.73;43.88
19672;BME280;9983;51.114;13.788;2023-04-23T14:10:18;98530.38;;;23.13;44.60
19672;BME280;9983;51.114;13.788;2023-04-23T14:15:18;98522.44;;;23.76;43.55
19672;BME280;9983;51.114;13.788;2023-04-23T14:20:18;98509.59;;;23.17;44.79
19672;BME280;9983;51.114;13.788;2023-04-23T14:25:33;98499.25;;;23.04;46.06
19672;BME280;9983;51.114;13.788;2023-04-23T14:30:34;98493.28;;;22.92;48.16
19672;BME280;9983;51.114;13.788;2023-04-23T14:35:34;98496.66;;;22.48;47.83
19672;BME280;9983;51.114;13.788;2023-04-23T14:40:35;98495.00;;;22.47;48.44
19672;BME280;9983;51.114;13.788;2023-04-23T14:45:35;98487.88;;;22.51;47.54
19672;BME280;9983;51.114;13.788;2023-04-23T14:50:35;98480.28;;;21.98;48.17
19672;BME280;9983;51.114;13.788;2023-04-23T14:55:36;98476.19;;;22.15;48.36
19672;BME280;9983;51.114;13.788;2023-04-23T15:00:37;98471.00;;;22.19;49.04
19672;BME280;9983;51.114;13.788;2023-04-23T15:05:38;98478.59;;;21.76;49.28
19672;BME280;9983;51.114;13.788;2023-04-23T15:10:39;98479.44;;;21.87;49.11
19672;BME280;9983;51.114;13.788;2023-04-23T15:15:48;98472.56;;;21.49;51.44
19672;BME280;9983;51.114;13.788;2023-04-23T15:20:48;98462.28;;;22.02;51.46
19672;BME280;9983;51.114;13.788;2023-04-23T15:25:49;98457.31;;;21.93;52.67
19672;BME280;9983;51.114;13.788;2023-04-23T15:30:51;98461.53;;;21.08;56.65
19672;BME280;9983;51.114;13.788;2023-04-23T15:35:51;98465.22;;;21.54;55.57
19672;BME280;9983;51.114;13.788;2023-04-23T15:40:51;98457.88;;;21.80;56.84
19672;BME280;9983;51.114;13.788;2023-04-23T15:45:51;98453.50;;;21.59;56.77
19672;BME280;9983;51.114;13.788;2023-04-23T15:50:54;98451.31;;;21.76;57.47
19672;BME280;9983;51.114;13.788;2023-04-23T15:55:54;98451.09;;;22.13;57.20
19672;BME280;9983;51.114;13.788;2023-04-23T16:00:55;98434.41;;;21.79;58.60
19672;BME280;9983;51.114;13.788;2023-04-23T16:05:55;98430.59;;;21.90;57.31
19672;BME280;9983;51.114;13.788;2023-04-23T16:10:55;98424.88;;;21.87;58.09
19672;BME280;9983;51.114;13.788;2023-04-23T16:15:57;98430.59;;;21.70;58.00
19672;BME280;9983;51.114;13.788;2023-04-23T16:20:57;98420.31;;;22.92;54.08
19672;BME280;9983;51.114;13.788;2023-04-23T16:25:58;98403.44;;;24.31;50.20
19672;BME280;9983;51.114;13.788;2023-04-23T16:31:00;98397.88;;;24.65;49.05
19672;BME280;9983;51.114;13.788;2023-04-23T16:36:00;98390.50;;;24.84;47.22
19672;BME280;9983;51.114;13.788;2023-04-23T16:41:00;98389.47;;;24.56;48.33
19672;BME280;9983;51.114;13.788;2023-04-23T16:46:01;98382.47;;;24.22;49.68
19672;BME280;9983;51.114;13.788;2023-04-23T16:51:01;98379.44;;;24.47;48.36
19672;BME280;9983;51.114;13.788;2023-04-23T16:56:03;98378.41;;;23.85;50.61
19672;BME280;9983;51.114;13.788;2023-04-23T17:01:03;98376.94;;;23.64;51.18
19672;BME280;9983;51.114;13.788;2023-04-23T17:06:17;98372.16;;;24.08;50.27
19672;BME280;9983;51.114;13.788;2023-04-23T17:11:19;98368.84;;;23.82;51.27
19672;BME280;9983;51.114;13.788;2023-04-23T17:16:19;98362.50;;;23.14;53.33
19672;BME280;9983;51.114;13.788;2023-04-23T17:21:19;98354.41;;;22.99;53.92
19672;BME280;9983;51.114;13.788;2023-04-23T17:26:20;98353.31;;;22.95;53.50
19672;BME280;9983;51.114;13.788;2023-04-23T17:31:20;98352.44;;;22.50;52.40
19672;BME280;9983;51.114;13.788;2023-04-23T17:36:20;98347.59;;;22.27;52.40
19672;BME280;9983;51.114;13.788;2023-04-23T17:41:21;98335.69;;;21.62;54.21
19672;BME280;9983;51.114;13.788;2023-04-23T17:46:21;98337.78;;;20.89;57.80
19672;BME280;9983;51.114;13.788;2023-04-23T17:51:22;98345.13;;;20.26;58.90
19672;BME280;9983;51.114;13.788;2023-04-23T17:56:22;98337.00;;;20.31;58.70
19672;BME280;9983;51.114;13.788;2023-04-23T18:01:22;98341.59;;;19.84;62.20
19672;BME280;9983;51.114;13.788;2023-04-23T18:06:23;98358.91;;;19.67;62.64
19672;BME280;9983;51.114;13.788;2023-04-23T18:11:23;98360.69;;;19.89;63.26
19672;BME280;9983;51.114;13.788;2023-04-23T18:16:23;98352.50;;;19.84;64.07
19672;BME280;9983;51.114;13.788;2023-04-23T18:21:24;98359.88;;;19.51;65.51
19672;BME280;9983;51.114;13.788;2023-04-23T18:26:25;98356.28;;;18.92;68.42
19672;BME280;9983;51.114;13.788;2023-04-23T18:31:25;98365.31;;;18.98;68.93
19672;BME280;9983;51.114;13.788;2023-04-23T18:36:31;98366.91;;;18.93;69.09
19672;BME280;9983;51.114;13.788;2023-04-23T18:41:31;98381.38;;;18.77;69.06
19672;BME280;9983;51.114;13.788;2023-04-23T18:46:33;98369.47;;;18.18;72.46
19672;BME280;9983;51.114;13.788;2023-04-23T18:51:44;98379.72;;;18.33;71.54
19672;BME280;9983;51.114;13.788;2023-04-23T18:56:48;98380.78;;;17.93;75.04
19672;BME280;9983;51.114;13.788;2023-04-23T19:01:51;98383.00;;;18.35;72.26
19672;BME280;9983;51.114;13.788;2023-04-23T19:06:51;98384.88;;;18.12;72.36
19672;BME280;9983;51.114;13.788;2023-04-23T19:11:52;98385.94;;;18.11;72.75
19672;BME280;9983;51.114;13.788;2023-04-23T19:16:52;98394.28;;;17.88;74.44
19672;BME280;9983;51.114;13.788;2023-04-23T19:21:53;98380.94;;;18.03;72.81
19672;BME280;9983;51.114;13.788;2023-04-23T19:26:53;98364.94;;;17.68;73.85
19672;BME280;9983;51.114;13.788;2023-04-23T19:31:53;98368.16;;;17.82;73.29
19672;BME280;9983;51.114;13.788;2023-04-23T19:36:54;98360.44;;;17.40;76.03
19672;BME280;9983;51.114;13.788;2023-04-23T19:41:54;98359.09;;;17.26;76.68
19672;BME280;9983;51.114;13.788;2023-04-23T19:46:54;98351.09;;;17.03;78.51
19672;BME280;9983;51.114;13.788;2023-04-23T19:51:55;98349.34;;;16.80;79.70
19672;BME280;9983;51.114;13.788;2023-04-23T19:56:56;98338.91;;;16.60;81.33
19672;BME280;9983;51.114;13.788;2023-04-23T20:01:57;98344.34;;;16.49;82.01
19672;BME280;9983;51.114;13.788;2023-04-23T20:06:57;98328.19;;;16.65;81.82
19672;BME280;9983;51.114;13.788;2023-04-23T20:11:57;98324.91;;;16.92;79.98
19672;BME280;9983;51.114;13.788;2023-04-23T20:16:57;98322.78;;;16.94;79.62
19672;BME280;9983;51.114;13.788;2023-04-23T20:21:58;98314.19;;;16.68;81.95
19672;BME280;9983;51.114;13.788;2023-04-23T20:26:58;98316.31;;;16.66;80.73
19672;BME280;9983;51.114;13.788;2023-04-23T20:31:58;98310.75;;;16.33;83.90
19672;BME280;9983;51.114;13.788;2023-04-23T20:36:59;98306.19;;;16.74;80.86
19672;BME280;9983;51.114;13.788;2023-04-23T20:42:00;98298.09;;;16.50;82.64
19672;BME280;9983;51.114;13.788;2023-04-23T20:47:00;98295.22;;;16.40;83.43
19672;BME280;9983;51.114;13.788;2023-04-23T20:52:05;98286.19;;;16.35;83.32
19672;BME280;9983;51.114;13.788;2023-04-23T20:57:05;98291.31;;;16.08;86.27
19672;BME280;9983;51.114;13.788;2023-04-23T21:02:06;98284.97;;;16.14;85.29
19672;BME280;9983;51.114;13.788;2023-04-23T21:07:07;98277.56;;;16.09;84.63
19672;BME280;9983;51.114;13.788;2023-04-23T21:12:07;98270.91;;;15.42;89.69
19672;BME280;9983;51.114;13.788;2023-04-23T21:17:08;98279.63;;;15.67;87.99
19672;BME280;9983;51.114;13.788;2023-04-23T21:22:08;98277.59;;;15.98;85.54
19672;BME280;9983;51.114;13.788;2023-04-23T21:27:11;98282.69;;;15.59;88.83
19672;BME280;9983;51.114;13.788;2023-04-23T21:32:14;98283.81;;;15.40;90.33
19672;BME280;9983;51.114;13.788;2023-04-23T21:37:15;98295.94;;;15.49;89.23
19672;BME280;9983;51.114;13.788;2023-04-23T21:42:15;98289.56;;;15.08;92.06
19672;BME280;9983;51.114;13.788;2023-04-23T21:47:15;98271.16;;;15.05;91.02
19672;BME280;9983;51.114;13.788;2023-04-23T21:52:15;98271.97;;;15.06;91.05
19672;BME280;9983;51.114;13.788;2023-04-23T21:57:16;98263.38;;;14.97;92.29
19672;BME280;9983;51.114;13.788;2023-04-23T22:02:16;98257.25;;;14.90;93.33
19672;BME280;9983;51.114;13.788;2023-04-23T22:07:17;98256.81;;;15.16;91.35
19672;BME280;9983;51.114;13.788;2023-04-23T22:12:18;98256.13;;;15.09;92.08
19672;BME280;9983;51.114;13.788;2023-04-23T22:17:18;98254.47;;;15.08;93.24
19672;BME280;9983;51.114;13.788;2023-04-23T22:22:19;98239.66;;;14.99;93.86
19672;BME280;9983;51.114;13.788;2023-04-23T22:27:19;98238.63;;;15.12;92.81
19672;BME280;9983;51.114;13.788;2023-04-23T22:32:19;98237.34;;;15.14;91.96
19672;BME280;9983;51.114;13.788;2023-04-23T22:37:20;98234.97;;;14.95;94.68
19672;BME280;9983;51.114;13.788;2023-04-23T22:42:20;98218.22;;;15.16;93.53
19672;BME280;9983;51.114;13.788;2023-04-23T22:47:20;98209.19;;;15.10;94.59
19672;BME280;9983;51.114;13.788;2023-04-23T22:52:21;98201.09;;;15.22;95.20
19672;BME280;9983;51.114;13.788;2023-04-23T22:57:22;98194.88;;;15.22;93.20
19672;BME280;9983;51.114;13.788;2023-04-23T23:02:22;98189.94;;;15.18;93.80
19672;BME280;9983;51.114;13.788;2023-04-23T23:07:23;98182.19;;;15.10;94.27
19672;BME280;9983;51.114;13.788;2023-04-23T23:12:24;98169.03;;;14.79;96.28
19672;BME280;9983;51.114;13.788;2023-04-23T23:17:24;98174.91;;;14.99;95.78
19672;BME280;9983;51.114;13.788;2023-04-23T23:22:24;98161.06;;;15.07;96.28
19672;BME280;9983;51.114;13.788;2023-04-23T23:27:26;98154.34;;;15.45;94.22
19672;BME280;9983;51.114;13.788;2023-04-23T23:32:26;98150.75;;;15.04;96.58
19672;BME280;9983;51.114;13.788;2023-04-23T23:37:26;98146.59;;;15.37;94.00
19672;BME280;9983;51.114;13.788;2023-04-23T23:42:27;98136.63;;;15.26;94.05
19672;BME280;9983;51.114;13.788;2023-04-23T23:47:27;98138.28;;;15.27;95.17
19672;BME280;9983;51.114;13.788;2023-04-23T23:52:27;98130.16;;;15.38;92.68
19672;BME280;9983;51.114;13.788;2023-04-23T23:57:28;98133.00;;;15.20;94.47
